This is the latest recevied weather packets stored in our database for station/object HB9BTL-13. If no packets are shown the sender has not sent any weather packets the latest 10 day(s).
| Time | Temp. | Humidity | Pressure | Rain* | Wind** | Luminosity | Snow |
|---|---|---|---|---|---|---|---|
| 1777750057 | 20° C | 55% | 1016.9 hPa | - | - | - | - |
| 1777749151 | 19.44° C | 57% | 1016.9 hPa | - | - | - | - |
| 1777748246 | 20° C | 55% | 1016.7 hPa | - | - | - | - |
| 1777747340 | 20.56° C | 54% | 1016.5 hPa | - | - | - | - |
| 1777746435 | 21.11° C | 53% | 1016.6 hPa | - | - | - | - |
| 1777745530 | 21.11° C | 54% | 1016.5 hPa | - | - | - | - |
| 1777744625 | 21.67° C | 51% | 1016.4 hPa | - | - | - | - |
| 1777743719 | 22.22° C | 52% | 1016.4 hPa | - | - | - | - |
| 1777742814 | 22.78° C | 52% | 1016.4 hPa | - | - | - | - |
| 1777741909 | 22.78° C | 51% | 1016.4 hPa | - | - | - | - |
| 1777741003 | 23.33° C | 45% | 1016.5 hPa | - | - | - | - |
| 1777740098 | 24.44° C | 39% | 1016.6 hPa | - | - | - | - |
| 1777739192 | 24.44° C | 39% | 1016.7 hPa | - | - | - | - |
| 1777738287 | 25° C | 36% | 1017 hPa | - | - | - | - |
| 1777737381 | 25° C | 39% | 1017.1 hPa | - | - | - | - |
| 1777736476 | 25.56° C | 36% | 1017.2 hPa | - | - | - | - |
| 1777735570 | 25° C | 37% | 1017.4 hPa | - | - | - | - |
| 1777734665 | 25° C | 37% | 1017.6 hPa | - | - | - | - |
| 1777733759 | 25° C | 39% | 1017.6 hPa | - | - | - | - |
| 1777732854 | 25° C | 39% | 1017.9 hPa | - | - | - | - |
| 1777731949 | 25° C | 42% | 1018.1 hPa | - | - | - | - |
| 1777731043 | 24.44° C | 42% | 1018.3 hPa | - | - | - | - |
| 1777730139 | 24.44° C | 43% | 1018.7 hPa | - | - | - | - |
| 1777729233 | 23.89° C | 44% | 1018.9 hPa | - | - | - | - |
| 1777728328 | 24.44° C | 42% | 1019 hPa | - | - | - | - |
* Rain since midnight (hover to see other rain measurements)
** Current wind speed in m/s (hover to see current wind gust speed)